sensor_id;sensor_type;location;lat;lon;timestamp;P1;durP1;ratioP1;P2;durP2;ratioP2
45650;SDS011;31365;48.858;8.530;2023-02-28T00:01:56;2.10;;;1.40;;
45650;SDS011;31365;48.858;8.530;2023-02-28T00:04:28;1.47;;;1.37;;
45650;SDS011;31365;48.858;8.530;2023-02-28T00:06:57;1.40;;;1.30;;
45650;SDS011;31365;48.858;8.530;2023-02-28T00:09:25;1.57;;;1.13;;
45650;SDS011;31365;48.858;8.530;2023-02-28T00:11:54;2.40;;;1.57;;
45650;SDS011;31365;48.858;8.530;2023-02-28T00:14:23;2.23;;;1.37;;
45650;SDS011;31365;48.858;8.530;2023-02-28T00:16:52;1.93;;;1.60;;
45650;SDS011;31365;48.858;8.530;2023-02-28T00:19:20;1.53;;;1.20;;
45650;SDS011;31365;48.858;8.530;2023-02-28T00:21:51;2.90;;;1.30;;
45650;SDS011;31365;48.858;8.530;2023-02-28T00:24:19;2.70;;;1.77;;
45650;SDS011;31365;48.858;8.530;2023-02-28T00:26:49;1.60;;;1.50;;
45650;SDS011;31365;48.858;8.530;2023-02-28T00:29:17;3.17;;;1.40;;
45650;SDS011;31365;48.858;8.530;2023-02-28T00:31:46;1.47;;;1.30;;
45650;SDS011;31365;48.858;8.530;2023-02-28T00:34:15;1.70;;;1.40;;
45650;SDS011;31365;48.858;8.530;2023-02-28T00:36:44;2.90;;;1.57;;
45650;SDS011;31365;48.858;8.530;2023-02-28T00:39:18;2.13;;;1.63;;
45650;SDS011;31365;48.858;8.530;2023-02-28T00:41:47;3.50;;;1.33;;
45650;SDS011;31365;48.858;8.530;2023-02-28T00:44:16;1.67;;;1.37;;
45650;SDS011;31365;48.858;8.530;2023-02-28T00:46:45;2.87;;;1.90;;
45650;SDS011;31365;48.858;8.530;2023-02-28T00:49:14;2.40;;;1.80;;
45650;SDS011;31365;48.858;8.530;2023-02-28T00:51:42;2.00;;;1.60;;
45650;SDS011;31365;48.858;8.530;2023-02-28T00:54:10;1.80;;;1.33;;
45650;SDS011;31365;48.858;8.530;2023-02-28T00:56:41;1.87;;;1.47;;
45650;SDS011;31365;48.858;8.530;2023-02-28T00:59:11;1.37;;;1.23;;
45650;SDS011;31365;48.858;8.530;2023-02-28T01:01:40;4.07;;;1.50;;
45650;SDS011;31365;48.858;8.530;2023-02-28T01:04:11;1.70;;;1.47;;
45650;SDS011;31365;48.858;8.530;2023-02-28T01:06:41;2.10;;;1.70;;
45650;SDS011;31365;48.858;8.530;2023-02-28T01:09:11;2.03;;;1.50;;
45650;SDS011;31365;48.858;8.530;2023-02-28T01:11:42;6.73;;;2.07;;
45650;SDS011;31365;48.858;8.530;2023-02-28T01:14:12;2.17;;;1.93;;
45650;SDS011;31365;48.858;8.530;2023-02-28T01:16:44;2.00;;;1.70;;
45650;SDS011;31365;48.858;8.530;2023-02-28T01:19:13;1.93;;;1.70;;
45650;SDS011;31365;48.858;8.530;2023-02-28T01:21:42;2.90;;;1.87;;
45650;SDS011;31365;48.858;8.530;2023-02-28T01:24:11;2.80;;;1.90;;
45650;SDS011;31365;48.858;8.530;2023-02-28T01:26:41;3.77;;;1.90;;
45650;SDS011;31365;48.858;8.530;2023-02-28T01:29:09;1.87;;;1.60;;
45650;SDS011;31365;48.858;8.530;2023-02-28T01:31:38;1.90;;;1.70;;
45650;SDS011;31365;48.858;8.530;2023-02-28T01:34:07;3.07;;;2.30;;
45650;SDS011;31365;48.858;8.530;2023-02-28T01:36:36;2.27;;;1.63;;
45650;SDS011;31365;48.858;8.530;2023-02-28T01:39:05;2.33;;;2.13;;
45650;SDS011;31365;48.858;8.530;2023-02-28T01:41:34;2.00;;;1.70;;
45650;SDS011;31365;48.858;8.530;2023-02-28T01:44:05;3.33;;;2.10;;
45650;SDS011;31365;48.858;8.530;2023-02-28T01:46:54;2.13;;;1.73;;
45650;SDS011;31365;48.858;8.530;2023-02-28T01:49:24;3.43;;;2.03;;
45650;SDS011;31365;48.858;8.530;2023-02-28T01:51:53;1.97;;;1.77;;
45650;SDS011;31365;48.858;8.530;2023-02-28T01:54:26;8.63;;;2.20;;
45650;SDS011;31365;48.858;8.530;2023-02-28T01:57:01;2.80;;;1.90;;
45650;SDS011;31365;48.858;8.530;2023-02-28T01:59:38;3.30;;;2.27;;
45650;SDS011;31365;48.858;8.530;2023-02-28T02:02:18;4.27;;;1.90;;
45650;SDS011;31365;48.858;8.530;2023-02-28T02:04:51;3.17;;;1.80;;
45650;SDS011;31365;48.858;8.530;2023-02-28T02:07:25;2.00;;;1.80;;
45650;SDS011;31365;48.858;8.530;2023-02-28T02:09:59;2.93;;;2.00;;
45650;SDS011;31365;48.858;8.530;2023-02-28T02:12:35;2.57;;;2.30;;
45650;SDS011;31365;48.858;8.530;2023-02-28T02:15:54;2.53;;;2.13;;
45650;SDS011;31365;48.858;8.530;2023-02-28T02:18:40;2.33;;;1.53;;
45650;SDS011;31365;48.858;8.530;2023-02-28T02:21:17;2.73;;;2.00;;
45650;SDS011;31365;48.858;8.530;2023-02-28T02:24:32;2.70;;;1.93;;
45650;SDS011;31365;48.858;8.530;2023-02-28T02:27:24;2.10;;;1.80;;
45650;SDS011;31365;48.858;8.530;2023-02-28T02:33:22;2.30;;;2.00;;
45650;SDS011;31365;48.858;8.530;2023-02-28T02:36:27;2.13;;;1.87;;
45650;SDS011;31365;48.858;8.530;2023-02-28T02:39:08;2.30;;;2.10;;
45650;SDS011;31365;48.858;8.530;2023-02-28T02:41:46;2.90;;;2.20;;
45650;SDS011;31365;48.858;8.530;2023-02-28T02:44:20;2.53;;;1.90;;
45650;SDS011;31365;48.858;8.530;2023-02-28T02:46:57;2.83;;;1.93;;
45650;SDS011;31365;48.858;8.530;2023-02-28T02:49:34;3.30;;;1.93;;
45650;SDS011;31365;48.858;8.530;2023-02-28T02:52:08;2.47;;;2.23;;
45650;SDS011;31365;48.858;8.530;2023-02-28T02:54:43;3.60;;;2.13;;
45650;SDS011;31365;48.858;8.530;2023-02-28T02:57:20;2.07;;;1.93;;
45650;SDS011;31365;48.858;8.530;2023-02-28T02:59:57;2.03;;;1.87;;
45650;SDS011;31365;48.858;8.530;2023-02-28T03:02:29;2.40;;;2.20;;
45650;SDS011;31365;48.858;8.530;2023-02-28T03:05:01;6.17;;;3.03;;
45650;SDS011;31365;48.858;8.530;2023-02-28T03:07:43;3.00;;;2.20;;
45650;SDS011;31365;48.858;8.530;2023-02-28T03:10:29;3.03;;;2.20;;
45650;SDS011;31365;48.858;8.530;2023-02-28T03:13:11;2.10;;;1.90;;
45650;SDS011;31365;48.858;8.530;2023-02-28T03:16:35;2.73;;;1.97;;
45650;SDS011;31365;48.858;8.530;2023-02-28T03:19:26;2.17;;;1.80;;
45650;SDS011;31365;48.858;8.530;2023-02-28T03:22:14;2.60;;;2.07;;
45650;SDS011;31365;48.858;8.530;2023-02-28T03:25:02;13.50;;;3.80;;
45650;SDS011;31365;48.858;8.530;2023-02-28T03:27:39;4.13;;;2.40;;
45650;SDS011;31365;48.858;8.530;2023-02-28T03:30:23;5.63;;;2.40;;
45650;SDS011;31365;48.858;8.530;2023-02-28T03:32:58;4.73;;;2.27;;
45650;SDS011;31365;48.858;8.530;2023-02-28T03:35:34;3.03;;;2.40;;
45650;SDS011;31365;48.858;8.530;2023-02-28T03:38:08;3.17;;;2.50;;
45650;SDS011;31365;48.858;8.530;2023-02-28T03:40:47;3.03;;;2.10;;
45650;SDS011;31365;48.858;8.530;2023-02-28T03:43:22;3.47;;;2.40;;
45650;SDS011;31365;48.858;8.530;2023-02-28T03:45:55;2.63;;;2.03;;
45650;SDS011;31365;48.858;8.530;2023-02-28T03:48:30;3.27;;;2.03;;
45650;SDS011;31365;48.858;8.530;2023-02-28T03:51:06;3.00;;;2.23;;
45650;SDS011;31365;48.858;8.530;2023-02-28T03:53:42;3.07;;;2.23;;
45650;SDS011;31365;48.858;8.530;2023-02-28T03:56:20;2.33;;;2.13;;
45650;SDS011;31365;48.858;8.530;2023-02-28T03:58:57;2.50;;;1.97;;
45650;SDS011;31365;48.858;8.530;2023-02-28T04:01:33;3.10;;;2.20;;
45650;SDS011;31365;48.858;8.530;2023-02-28T04:04:08;2.13;;;1.93;;
45650;SDS011;31365;48.858;8.530;2023-02-28T04:06:37;2.93;;;2.10;;
45650;SDS011;31365;48.858;8.530;2023-02-28T04:09:10;2.73;;;2.33;;
45650;SDS011;31365;48.858;8.530;2023-02-28T04:11:43;2.97;;;2.37;;
45650;SDS011;31365;48.858;8.530;2023-02-28T04:14:15;2.87;;;2.40;;
45650;SDS011;31365;48.858;8.530;2023-02-28T04:16:45;2.70;;;2.27;;
45650;SDS011;31365;48.858;8.530;2023-02-28T04:19:14;3.93;;;2.50;;
45650;SDS011;31365;48.858;8.530;2023-02-28T04:21:43;5.50;;;3.00;;
45650;SDS011;31365;48.858;8.530;2023-02-28T04:24:14;3.90;;;3.10;;
45650;SDS011;31365;48.858;8.530;2023-02-28T04:26:47;3.03;;;2.63;;
45650;SDS011;31365;48.858;8.530;2023-02-28T04:29:22;4.33;;;2.70;;
45650;SDS011;31365;48.858;8.530;2023-02-28T04:31:54;3.93;;;2.70;;
45650;SDS011;31365;48.858;8.530;2023-02-28T04:34:24;2.40;;;2.00;;
45650;SDS011;31365;48.858;8.530;2023-02-28T04:36:54;2.53;;;2.20;;
45650;SDS011;31365;48.858;8.530;2023-02-28T04:39:39;5.37;;;2.43;;
45650;SDS011;31365;48.858;8.530;2023-02-28T04:42:11;3.13;;;2.37;;
45650;SDS011;31365;48.858;8.530;2023-02-28T04:44:40;3.50;;;2.70;;
45650;SDS011;31365;48.858;8.530;2023-02-28T04:47:09;2.90;;;2.50;;
45650;SDS011;31365;48.858;8.530;2023-02-28T04:49:38;3.23;;;2.93;;
45650;SDS011;31365;48.858;8.530;2023-02-28T04:52:08;4.30;;;3.17;;
45650;SDS011;31365;48.858;8.530;2023-02-28T04:54:37;3.63;;;2.90;;
45650;SDS011;31365;48.858;8.530;2023-02-28T04:57:06;4.20;;;2.90;;
45650;SDS011;31365;48.858;8.530;2023-02-28T04:59:39;5.67;;;3.33;;
45650;SDS011;31365;48.858;8.530;2023-02-28T05:02:08;4.50;;;3.20;;
45650;SDS011;31365;48.858;8.530;2023-02-28T05:04:36;3.10;;;2.50;;
45650;SDS011;31365;48.858;8.530;2023-02-28T05:07:05;3.70;;;2.80;;
45650;SDS011;31365;48.858;8.530;2023-02-28T05:09:33;3.13;;;2.80;;
45650;SDS011;31365;48.858;8.530;2023-02-28T05:12:02;4.00;;;3.00;;
45650;SDS011;31365;48.858;8.530;2023-02-28T05:14:31;3.90;;;3.10;;
45650;SDS011;31365;48.858;8.530;2023-02-28T05:17:01;3.70;;;2.73;;
45650;SDS011;31365;48.858;8.530;2023-02-28T05:19:30;3.30;;;3.00;;
45650;SDS011;31365;48.858;8.530;2023-02-28T05:21:59;3.63;;;3.10;;
45650;SDS011;31365;48.858;8.530;2023-02-28T05:24:29;3.83;;;2.97;;
45650;SDS011;31365;48.858;8.530;2023-02-28T05:26:58;3.83;;;3.27;;
45650;SDS011;31365;48.858;8.530;2023-02-28T05:29:28;6.30;;;3.10;;
45650;SDS011;31365;48.858;8.530;2023-02-28T05:31:56;7.87;;;3.80;;
45650;SDS011;31365;48.858;8.530;2023-02-28T05:34:27;5.93;;;4.27;;
45650;SDS011;31365;48.858;8.530;2023-02-28T05:36:57;3.30;;;3.00;;
45650;SDS011;31365;48.858;8.530;2023-02-28T05:39:26;6.13;;;3.80;;
45650;SDS011;31365;48.858;8.530;2023-02-28T05:41:54;4.07;;;3.37;;
45650;SDS011;31365;48.858;8.530;2023-02-28T05:44:23;4.03;;;3.47;;
45650;SDS011;31365;48.858;8.530;2023-02-28T05:46:51;4.30;;;3.53;;
45650;SDS011;31365;48.858;8.530;2023-02-28T05:49:21;4.20;;;3.40;;
45650;SDS011;31365;48.858;8.530;2023-02-28T05:51:51;4.70;;;3.23;;
45650;SDS011;31365;48.858;8.530;2023-02-28T05:54:19;5.33;;;3.30;;
45650;SDS011;31365;48.858;8.530;2023-02-28T05:56:47;3.37;;;3.07;;
45650;SDS011;31365;48.858;8.530;2023-02-28T05:59:16;4.97;;;3.50;;
45650;SDS011;31365;48.858;8.530;2023-02-28T06:01:46;4.73;;;3.30;;
45650;SDS011;31365;48.858;8.530;2023-02-28T06:04:16;6.43;;;3.03;;
45650;SDS011;31365;48.858;8.530;2023-02-28T06:06:58;3.63;;;3.07;;
45650;SDS011;31365;48.858;8.530;2023-02-28T06:09:29;4.73;;;3.80;;
45650;SDS011;31365;48.858;8.530;2023-02-28T06:11:57;4.77;;;3.30;;
45650;SDS011;31365;48.858;8.530;2023-02-28T06:14:27;4.47;;;3.47;;
45650;SDS011;31365;48.858;8.530;2023-02-28T06:16:57;4.10;;;3.60;;
45650;SDS011;31365;48.858;8.530;2023-02-28T06:19:26;4.70;;;3.57;;
45650;SDS011;31365;48.858;8.530;2023-02-28T06:21:56;5.27;;;3.30;;
45650;SDS011;31365;48.858;8.530;2023-02-28T06:24:27;4.17;;;3.73;;
45650;SDS011;31365;48.858;8.530;2023-02-28T06:26:57;3.37;;;3.07;;
45650;SDS011;31365;48.858;8.530;2023-02-28T06:29:31;5.80;;;3.30;;
45650;SDS011;31365;48.858;8.530;2023-02-28T06:32:00;4.80;;;3.70;;
45650;SDS011;31365;48.858;8.530;2023-02-28T06:34:29;4.43;;;3.40;;
45650;SDS011;31365;48.858;8.530;2023-02-28T06:37:00;5.73;;;3.90;;
45650;SDS011;31365;48.858;8.530;2023-02-28T06:39:28;4.80;;;4.20;;
45650;SDS011;31365;48.858;8.530;2023-02-28T06:41:57;4.30;;;3.57;;
45650;SDS011;31365;48.858;8.530;2023-02-28T06:44:25;5.23;;;4.03;;
45650;SDS011;31365;48.858;8.530;2023-02-28T06:47:02;4.93;;;3.87;;
45650;SDS011;31365;48.858;8.530;2023-02-28T06:49:34;5.30;;;4.03;;
45650;SDS011;31365;48.858;8.530;2023-02-28T06:52:06;4.57;;;4.17;;
45650;SDS011;31365;48.858;8.530;2023-02-28T06:54:36;5.00;;;4.33;;
45650;SDS011;31365;48.858;8.530;2023-02-28T06:57:05;4.90;;;4.13;;
45650;SDS011;31365;48.858;8.530;2023-02-28T06:59:34;4.07;;;3.63;;
45650;SDS011;31365;48.858;8.530;2023-02-28T07:02:03;5.47;;;3.50;;
45650;SDS011;31365;48.858;8.530;2023-02-28T07:04:32;4.47;;;3.43;;
45650;SDS011;31365;48.858;8.530;2023-02-28T07:07:02;4.33;;;3.37;;
45650;SDS011;31365;48.858;8.530;2023-02-28T07:09:31;5.30;;;3.60;;
45650;SDS011;31365;48.858;8.530;2023-02-28T07:12:01;3.87;;;3.40;;
45650;SDS011;31365;48.858;8.530;2023-02-28T07:14:29;5.53;;;4.90;;
45650;SDS011;31365;48.858;8.530;2023-02-28T07:16:58;5.50;;;4.40;;
45650;SDS011;31365;48.858;8.530;2023-02-28T07:19:26;6.77;;;4.30;;
45650;SDS011;31365;48.858;8.530;2023-02-28T07:21:55;10.50;;;7.20;;
45650;SDS011;31365;48.858;8.530;2023-02-28T07:24:24;3.83;;;3.27;;
45650;SDS011;31365;48.858;8.530;2023-02-28T07:26:56;7.20;;;4.90;;
45650;SDS011;31365;48.858;8.530;2023-02-28T07:29:27;5.80;;;4.23;;
45650;SDS011;31365;48.858;8.530;2023-02-28T07:31:56;4.77;;;4.07;;
45650;SDS011;31365;48.858;8.530;2023-02-28T07:34:25;4.43;;;3.90;;
45650;SDS011;31365;48.858;8.530;2023-02-28T07:36:54;4.27;;;3.70;;
45650;SDS011;31365;48.858;8.530;2023-02-28T07:39:22;5.40;;;4.00;;
45650;SDS011;31365;48.858;8.530;2023-02-28T07:41:51;4.10;;;3.50;;
45650;SDS011;31365;48.858;8.530;2023-02-28T07:44:25;3.97;;;3.43;;
45650;SDS011;31365;48.858;8.530;2023-02-28T07:46:54;4.57;;;3.97;;
45650;SDS011;31365;48.858;8.530;2023-02-28T07:49:22;4.90;;;3.90;;
45650;SDS011;31365;48.858;8.530;2023-02-28T07:51:51;5.33;;;4.33;;
45650;SDS011;31365;48.858;8.530;2023-02-28T07:54:19;5.13;;;3.83;;
45650;SDS011;31365;48.858;8.530;2023-02-28T07:56:48;5.30;;;4.10;;
45650;SDS011;31365;48.858;8.530;2023-02-28T07:59:17;4.27;;;3.83;;
45650;SDS011;31365;48.858;8.530;2023-02-28T08:01:47;7.17;;;3.63;;
45650;SDS011;31365;48.858;8.530;2023-02-28T08:04:16;3.70;;;3.37;;
45650;SDS011;31365;48.858;8.530;2023-02-28T08:06:46;4.20;;;3.80;;
45650;SDS011;31365;48.858;8.530;2023-02-28T08:09:18;4.40;;;3.67;;
45650;SDS011;31365;48.858;8.530;2023-02-28T08:11:47;9.30;;;4.17;;
45650;SDS011;31365;48.858;8.530;2023-02-28T08:14:16;3.60;;;3.30;;
45650;SDS011;31365;48.858;8.530;2023-02-28T08:16:46;5.37;;;3.50;;
45650;SDS011;31365;48.858;8.530;2023-02-28T08:19:15;4.40;;;4.00;;
45650;SDS011;31365;48.858;8.530;2023-02-28T08:21:43;6.43;;;3.40;;
45650;SDS011;31365;48.858;8.530;2023-02-28T08:24:12;5.30;;;3.77;;
45650;SDS011;31365;48.858;8.530;2023-02-28T08:26:41;6.20;;;3.60;;
45650;SDS011;31365;48.858;8.530;2023-02-28T08:29:09;4.93;;;3.93;;
45650;SDS011;31365;48.858;8.530;2023-02-28T08:31:38;5.53;;;3.77;;
45650;SDS011;31365;48.858;8.530;2023-02-28T08:34:11;4.33;;;3.80;;
45650;SDS011;31365;48.858;8.530;2023-02-28T08:36:45;4.83;;;4.17;;
45650;SDS011;31365;48.858;8.530;2023-02-28T08:39:13;5.77;;;4.00;;
45650;SDS011;31365;48.858;8.530;2023-02-28T08:41:42;5.17;;;3.87;;
45650;SDS011;31365;48.858;8.530;2023-02-28T08:44:14;6.80;;;4.90;;
45650;SDS011;31365;48.858;8.530;2023-02-28T08:46:43;6.27;;;3.97;;
45650;SDS011;31365;48.858;8.530;2023-02-28T08:49:14;6.30;;;4.60;;
45650;SDS011;31365;48.858;8.530;2023-02-28T08:51:43;4.70;;;4.23;;
45650;SDS011;31365;48.858;8.530;2023-02-28T08:54:12;3.93;;;3.63;;
45650;SDS011;31365;48.858;8.530;2023-02-28T08:56:42;4.87;;;4.37;;
45650;SDS011;31365;48.858;8.530;2023-02-28T08:59:10;5.27;;;4.67;;
45650;SDS011;31365;48.858;8.530;2023-02-28T09:01:39;4.77;;;4.20;;
45650;SDS011;31365;48.858;8.530;2023-02-28T09:04:10;5.47;;;4.40;;
45650;SDS011;31365;48.858;8.530;2023-02-28T09:06:46;9.97;;;4.83;;
45650;SDS011;31365;48.858;8.530;2023-02-28T09:09:15;9.47;;;5.83;;
45650;SDS011;31365;48.858;8.530;2023-02-28T09:11:44;4.83;;;4.13;;
45650;SDS011;31365;48.858;8.530;2023-02-28T09:14:13;6.00;;;4.47;;
45650;SDS011;31365;48.858;8.530;2023-02-28T09:16:44;6.63;;;5.90;;
45650;SDS011;31365;48.858;8.530;2023-02-28T09:19:15;6.63;;;4.80;;
45650;SDS011;31365;48.858;8.530;2023-02-28T09:21:43;6.10;;;4.40;;
45650;SDS011;31365;48.858;8.530;2023-02-28T09:24:20;9.17;;;4.93;;
45650;SDS011;31365;48.858;8.530;2023-02-28T09:26:48;4.57;;;4.17;;
45650;SDS011;31365;48.858;8.530;2023-02-28T09:29:30;10.50;;;5.13;;
45650;SDS011;31365;48.858;8.530;2023-02-28T09:31:59;11.07;;;6.07;;
45650;SDS011;31365;48.858;8.530;2023-02-28T09:34:32;4.63;;;4.20;;
45650;SDS011;31365;48.858;8.530;2023-02-28T09:37:05;5.90;;;4.20;;
45650;SDS011;31365;48.858;8.530;2023-02-28T09:39:35;9.27;;;5.33;;
45650;SDS011;31365;48.858;8.530;2023-02-28T09:42:04;8.27;;;5.13;;
45650;SDS011;31365;48.858;8.530;2023-02-28T09:44:35;6.10;;;4.13;;
45650;SDS011;31365;48.858;8.530;2023-02-28T09:47:12;8.37;;;5.07;;
45650;SDS011;31365;48.858;8.530;2023-02-28T09:49:53;11.53;;;4.90;;
45650;SDS011;31365;48.858;8.530;2023-02-28T09:52:28;6.57;;;4.73;;
45650;SDS011;31365;48.858;8.530;2023-02-28T09:55:10;4.53;;;4.13;;
45650;SDS011;31365;48.858;8.530;2023-02-28T09:57:52;11.97;;;6.37;;
45650;SDS011;31365;48.858;8.530;2023-02-28T10:00:28;6.77;;;4.90;;
45650;SDS011;31365;48.858;8.530;2023-02-28T10:03:06;13.90;;;5.50;;
45650;SDS011;31365;48.858;8.530;2023-02-28T10:05:56;10.10;;;4.70;;
45650;SDS011;31365;48.858;8.530;2023-02-28T10:08:36;18.40;;;6.67;;
45650;SDS011;31365;48.858;8.530;2023-02-28T10:11:09;6.83;;;4.60;;
45650;SDS011;31365;48.858;8.530;2023-02-28T10:13:50;6.57;;;5.20;;
45650;SDS011;31365;48.858;8.530;2023-02-28T10:16:29;6.03;;;5.43;;
45650;SDS011;31365;48.858;8.530;2023-02-28T10:19:05;7.83;;;6.10;;
45650;SDS011;31365;48.858;8.530;2023-02-28T10:21:45;8.33;;;5.07;;
45650;SDS011;31365;48.858;8.530;2023-02-28T10:24:28;12.20;;;5.63;;
45650;SDS011;31365;48.858;8.530;2023-02-28T10:27:06;10.93;;;5.73;;
45650;SDS011;31365;48.858;8.530;2023-02-28T10:29:46;7.93;;;5.27;;
45650;SDS011;31365;48.858;8.530;2023-02-28T10:32:18;9.03;;;5.80;;
45650;SDS011;31365;48.858;8.530;2023-02-28T10:34:55;8.93;;;6.00;;
45650;SDS011;31365;48.858;8.530;2023-02-28T10:37:29;6.13;;;5.50;;
45650;SDS011;31365;48.858;8.530;2023-02-28T10:40:00;5.40;;;4.90;;
45650;SDS011;31365;48.858;8.530;2023-02-28T10:42:34;7.97;;;5.97;;
45650;SDS011;31365;48.858;8.530;2023-02-28T10:45:06;5.43;;;4.90;;
45650;SDS011;31365;48.858;8.530;2023-02-28T10:47:42;5.23;;;4.73;;
45650;SDS011;31365;48.858;8.530;2023-02-28T10:50:26;8.30;;;5.37;;
45650;SDS011;31365;48.858;8.530;2023-02-28T10:53:05;5.50;;;4.97;;
45650;SDS011;31365;48.858;8.530;2023-02-28T10:56:14;5.90;;;5.27;;
45650;SDS011;31365;48.858;8.530;2023-02-28T10:58:49;5.73;;;5.13;;
45650;SDS011;31365;48.858;8.530;2023-02-28T11:01:23;5.87;;;5.00;;
45650;SDS011;31365;48.858;8.530;2023-02-28T11:04:16;9.27;;;6.10;;
45650;SDS011;31365;48.858;8.530;2023-02-28T11:06:51;9.47;;;5.73;;
45650;SDS011;31365;48.858;8.530;2023-02-28T11:09:28;7.17;;;5.63;;
45650;SDS011;31365;48.858;8.530;2023-02-28T11:12:03;6.37;;;5.40;;
45650;SDS011;31365;48.858;8.530;2023-02-28T11:14:46;4.97;;;4.57;;
45650;SDS011;31365;48.858;8.530;2023-02-28T11:17:20;10.77;;;5.83;;
45650;SDS011;31365;48.858;8.530;2023-02-28T11:19:51;9.20;;;6.20;;
45650;SDS011;31365;48.858;8.530;2023-02-28T11:22:31;8.57;;;5.77;;
45650;SDS011;31365;48.858;8.530;2023-02-28T11:25:09;6.20;;;5.60;;
45650;SDS011;31365;48.858;8.530;2023-02-28T11:27:54;6.37;;;5.30;;
45650;SDS011;31365;48.858;8.530;2023-02-28T11:30:34;6.80;;;5.27;;
45650;SDS011;31365;48.858;8.530;2023-02-28T11:35:55;8.83;;;5.60;;
45650;SDS011;31365;48.858;8.530;2023-02-28T11:38:31;6.03;;;5.17;;
45650;SDS011;31365;48.858;8.530;2023-02-28T11:47:20;10.47;;;6.30;;
45650;SDS011;31365;48.858;8.530;2023-02-28T11:50:04;6.37;;;5.80;;
45650;SDS011;31365;48.858;8.530;2023-02-28T11:52:55;6.70;;;5.50;;
45650;SDS011;31365;48.858;8.530;2023-02-28T11:55:31;8.30;;;5.57;;
45650;SDS011;31365;48.858;8.530;2023-02-28T11:58:14;7.43;;;5.20;;
45650;SDS011;31365;48.858;8.530;2023-02-28T12:04:13;7.40;;;5.10;;
45650;SDS011;31365;48.858;8.530;2023-02-28T12:06:55;6.73;;;5.53;;
45650;SDS011;31365;48.858;8.530;2023-02-28T12:09:41;6.87;;;5.20;;
45650;SDS011;31365;48.858;8.530;2023-02-28T12:12:23;7.93;;;5.57;;
45650;SDS011;31365;48.858;8.530;2023-02-28T12:18:29;14.97;;;5.60;;
45650;SDS011;31365;48.858;8.530;2023-02-28T12:21:26;6.83;;;6.10;;
45650;SDS011;31365;48.858;8.530;2023-02-28T12:24:20;10.80;;;6.30;;
45650;SDS011;31365;48.858;8.530;2023-02-28T12:27:05;6.23;;;5.63;;
45650;SDS011;31365;48.858;8.530;2023-02-28T12:29:43;7.30;;;6.10;;
45650;SDS011;31365;48.858;8.530;2023-02-28T12:32:21;6.93;;;6.20;;
45650;SDS011;31365;48.858;8.530;2023-02-28T12:35:00;5.93;;;5.33;;
45650;SDS011;31365;48.858;8.530;2023-02-28T12:37:38;6.57;;;5.30;;
45650;SDS011;31365;48.858;8.530;2023-02-28T12:40:14;6.17;;;5.57;;
45650;SDS011;31365;48.858;8.530;2023-02-28T12:42:50;5.63;;;5.07;;
45650;SDS011;31365;48.858;8.530;2023-02-28T12:45:25;6.80;;;5.30;;
45650;SDS011;31365;48.858;8.530;2023-02-28T12:48:08;5.53;;;5.03;;
45650;SDS011;31365;48.858;8.530;2023-02-28T12:50:45;7.60;;;5.60;;
45650;SDS011;31365;48.858;8.530;2023-02-28T12:53:21;11.17;;;5.80;;
45650;SDS011;31365;48.858;8.530;2023-02-28T12:56:02;6.30;;;5.70;;
45650;SDS011;31365;48.858;8.530;2023-02-28T12:58:45;6.20;;;5.47;;
45650;SDS011;31365;48.858;8.530;2023-02-28T13:44:16;9.43;;;5.70;;
45650;SDS011;31365;48.858;8.530;2023-02-28T13:50:07;6.67;;;5.60;;
45650;SDS011;31365;48.858;8.530;2023-02-28T13:52:50;6.20;;;5.60;;
45650;SDS011;31365;48.858;8.530;2023-02-28T13:55:48;8.47;;;5.90;;
45650;SDS011;31365;48.858;8.530;2023-02-28T13:58:32;6.80;;;6.07;;
45650;SDS011;31365;48.858;8.530;2023-02-28T14:01:28;6.57;;;5.97;;
45650;SDS011;31365;48.858;8.530;2023-02-28T14:07:31;9.80;;;7.63;;
45650;SDS011;31365;48.858;8.530;2023-02-28T14:10:19;8.57;;;6.03;;
45650;SDS011;31365;48.858;8.530;2023-02-28T14:16:22;6.30;;;5.80;;
45650;SDS011;31365;48.858;8.530;2023-02-28T14:18:56;6.40;;;5.90;;
45650;SDS011;31365;48.858;8.530;2023-02-28T14:21:31;5.70;;;5.20;;
45650;SDS011;31365;48.858;8.530;2023-02-28T14:24:16;7.27;;;6.10;;
45650;SDS011;31365;48.858;8.530;2023-02-28T14:27:29;14.70;;;7.67;;
45650;SDS011;31365;48.858;8.530;2023-02-28T14:33:14;8.53;;;7.67;;
45650;SDS011;31365;48.858;8.530;2023-02-28T14:36:23;7.57;;;6.70;;
45650;SDS011;31365;48.858;8.530;2023-02-28T14:39:11;7.47;;;5.43;;
45650;SDS011;31365;48.858;8.530;2023-02-28T14:42:22;7.03;;;6.33;;
45650;SDS011;31365;48.858;8.530;2023-02-28T14:45:05;7.00;;;6.30;;
45650;SDS011;31365;48.858;8.530;2023-02-28T14:47:48;6.57;;;5.87;;
45650;SDS011;31365;48.858;8.530;2023-02-28T14:50:21;6.17;;;5.60;;
45650;SDS011;31365;48.858;8.530;2023-02-28T14:52:54;8.87;;;5.90;;
45650;SDS011;31365;48.858;8.530;2023-02-28T14:55:28;6.90;;;6.20;;
45650;SDS011;31365;48.858;8.530;2023-02-28T14:58:00;11.83;;;7.03;;
45650;SDS011;31365;48.858;8.530;2023-02-28T15:00:33;8.83;;;7.20;;
45650;SDS011;31365;48.858;8.530;2023-02-28T15:05:51;11.47;;;6.53;;
45650;SDS011;31365;48.858;8.530;2023-02-28T15:08:21;6.53;;;5.93;;
45650;SDS011;31365;48.858;8.530;2023-02-28T15:10:53;10.90;;;6.70;;
45650;SDS011;31365;48.858;8.530;2023-02-28T15:13:26;7.13;;;6.43;;
45650;SDS011;31365;48.858;8.530;2023-02-28T15:16:04;7.90;;;7.10;;
45650;SDS011;31365;48.858;8.530;2023-02-28T15:18:45;9.00;;;6.83;;
45650;SDS011;31365;48.858;8.530;2023-02-28T15:21:20;8.10;;;5.97;;
45650;SDS011;31365;48.858;8.530;2023-02-28T15:23:54;9.97;;;6.73;;
45650;SDS011;31365;48.858;8.530;2023-02-28T15:26:29;7.63;;;6.60;;
45650;SDS011;31365;48.858;8.530;2023-02-28T15:29:04;7.57;;;6.50;;
45650;SDS011;31365;48.858;8.530;2023-02-28T15:31:39;9.43;;;6.07;;
45650;SDS011;31365;48.858;8.530;2023-02-28T15:34:27;6.93;;;6.17;;
45650;SDS011;31365;48.858;8.530;2023-02-28T15:37:26;7.20;;;5.93;;
45650;SDS011;31365;48.858;8.530;2023-02-28T15:39:58;8.23;;;6.47;;
45650;SDS011;31365;48.858;8.530;2023-02-28T15:42:40;7.50;;;6.27;;
45650;SDS011;31365;48.858;8.530;2023-02-28T15:45:30;6.83;;;6.13;;
45650;SDS011;31365;48.858;8.530;2023-02-28T15:48:05;7.67;;;6.87;;
45650;SDS011;31365;48.858;8.530;2023-02-28T15:50:44;8.93;;;6.67;;
45650;SDS011;31365;48.858;8.530;2023-02-28T15:53:19;14.20;;;6.57;;
45650;SDS011;31365;48.858;8.530;2023-02-28T15:55:54;7.27;;;6.37;;
45650;SDS011;31365;48.858;8.530;2023-02-28T15:58:29;7.20;;;6.50;;
45650;SDS011;31365;48.858;8.530;2023-02-28T16:01:05;12.07;;;6.87;;
45650;SDS011;31365;48.858;8.530;2023-02-28T16:03:46;8.47;;;6.20;;
45650;SDS011;31365;48.858;8.530;2023-02-28T16:06:26;7.80;;;6.10;;
45650;SDS011;31365;48.858;8.530;2023-02-28T16:09:03;9.27;;;7.97;;
45650;SDS011;31365;48.858;8.530;2023-02-28T16:11:40;11.03;;;6.87;;
45650;SDS011;31365;48.858;8.530;2023-02-28T16:14:16;13.90;;;7.43;;
45650;SDS011;31365;48.858;8.530;2023-02-28T16:16:50;8.67;;;7.20;;
45650;SDS011;31365;48.858;8.530;2023-02-28T16:19:22;9.07;;;7.57;;
45650;SDS011;31365;48.858;8.530;2023-02-28T16:21:54;13.20;;;9.93;;
45650;SDS011;31365;48.858;8.530;2023-02-28T16:24:24;7.30;;;6.60;;
45650;SDS011;31365;48.858;8.530;2023-02-28T16:26:53;12.87;;;9.63;;
45650;SDS011;31365;48.858;8.530;2023-02-28T16:29:27;7.03;;;6.43;;
45650;SDS011;31365;48.858;8.530;2023-02-28T16:32:00;8.83;;;6.43;;
45650;SDS011;31365;48.858;8.530;2023-02-28T16:34:32;9.83;;;7.23;;
45650;SDS011;31365;48.858;8.530;2023-02-28T16:37:04;7.07;;;6.47;;
45650;SDS011;31365;48.858;8.530;2023-02-28T16:39:39;10.30;;;8.07;;
45650;SDS011;31365;48.858;8.530;2023-02-28T16:42:10;9.93;;;8.27;;
45650;SDS011;31365;48.858;8.530;2023-02-28T16:44:49;9.80;;;8.13;;
45650;SDS011;31365;48.858;8.530;2023-02-28T16:47:19;9.23;;;7.47;;
45650;SDS011;31365;48.858;8.530;2023-02-28T16:49:50;7.90;;;6.80;;